Time;durP1;ratioP1;P1;durP2;ratioP2;P2;SDS_P1;SDS_P2;PMS_P1;PMS_P2;Temp;Humidity;BMP_temperature;BMP_pressure;BME280_temperature;BME280_humidity;BME280_pressure;Samples;Min_cycle;Max_cycle;Signal;HPM_P1;HPM_P2
2023/07/12 00:00:58;;;;;;;4.28;3.83;;;17.50;99.90;;;;;;5016369;28;20061;-39
2023/07/12 00:03:24;;;;;;;5.22;3.88;;;17.50;99.90;;;;;;5032866;28;20047;-40
2023/07/12 00:05:50;;;;;;;6.22;3.95;;;17.50;99.90;;;;;;5031966;28;20048;-39
2023/07/12 00:08:21;;;;;;;5.18;4.18;;;17.50;99.90;;;;;;5033258;28;20091;-39
2023/07/12 00:10:48;;;;;;;4.07;3.53;;;17.50;99.90;;;;;;5032432;28;20052;-39
2023/07/12 00:13:15;;;;;;;4.75;4.10;;;17.40;99.90;;;;;;5042656;28;20063;-41
2023/07/12 00:15:41;;;;;;;5.30;4.28;;;17.40;99.90;;;;;;5116265;27;20077;-39
2023/07/12 00:18:14;;;;;;;7.28;4.03;;;17.40;99.90;;;;;;5116649;27;20039;-39
2023/07/12 00:20:41;;;;;;;4.70;4.00;;;17.40;99.90;;;;;;5115348;27;20046;-42
2023/07/12 00:23:09;;;;;;;8.35;4.00;;;17.30;99.90;;;;;;5115538;27;20054;-39
2023/07/12 00:25:35;;;;;;;5.60;3.75;;;17.20;99.90;;;;;;5115291;27;20512;-41
2023/07/12 00:28:01;;;;;;;7.10;4.03;;;17.20;99.90;;;;;;5115384;27;20125;-39
2023/07/12 00:30:30;;;;;;;5.88;3.88;;;17.20;99.90;;;;;;5097473;27;20527;-40
2023/07/12 00:32:57;;;;;;;7.38;4.28;;;17.20;99.90;;;;;;5116124;27;20047;-39
2023/07/12 00:35:26;;;;;;;6.45;4.47;;;17.20;99.90;;;;;;5107411;27;20084;-39
2023/07/12 00:38:00;;;;;;;6.03;4.43;;;17.20;99.90;;;;;;5111903;27;20043;-40
2023/07/12 00:40:45;;;;;;;7.03;4.95;;;17.20;99.90;;;;;;5115727;27;20074;-39
2023/07/12 00:43:37;;;;;;;7.47;4.35;;;17.20;99.90;;;;;;5110293;27;20042;-39
2023/07/12 00:46:18;;;;;;;4.97;4.28;;;17.20;99.90;;;;;;5128065;27;20046;-39
2023/07/12 00:48:48;;;;;;;5.63;4.38;;;17.30;99.90;;;;;;5136034;27;20043;-40
2023/07/12 00:51:19;;;;;;;5.68;3.78;;;17.30;99.90;;;;;;5136279;27;20438;-39
2023/07/12 00:53:45;;;;;;;5.65;4.43;;;17.30;99.90;;;;;;5135871;27;20611;-39
2023/07/12 00:56:12;;;;;;;6.03;5.07;;;17.30;99.90;;;;;;5135850;27;20055;-39
2023/07/12 00:58:42;;;;;;;6.18;4.53;;;17.30;99.90;;;;;;5136276;27;20055;-41
2023/07/12 01:01:09;;;;;;;4.90;4.25;;;17.30;99.90;;;;;;5136341;27;20082;-40
2023/07/12 01:03:38;;;;;;;6.18;5.22;;;17.40;99.90;;;;;;5135013;27;20088;-39
2023/07/12 01:06:06;;;;;;;8.07;4.97;;;17.40;99.90;;;;;;5135540;27;20125;-39
2023/07/12 01:08:32;;;;;;;6.53;5.93;;;17.40;99.90;;;;;;5136074;27;20145;-39
2023/07/12 01:11:01;;;;;;;7.88;5.60;;;17.40;99.90;;;;;;5116667;27;20043;-39
2023/07/12 01:13:28;;;;;;;8.55;5.75;;;17.40;99.90;;;;;;5135286;27;20034;-40
2023/07/12 01:15:54;;;;;;;11.15;6.15;;;17.40;99.90;;;;;;5135561;27;20639;-40
2023/07/12 01:18:20;;;;;;;8.38;5.93;;;17.40;99.90;;;;;;5133494;27;20046;-40
2023/07/12 01:20:46;;;;;;;11.88;5.43;;;17.40;99.90;;;;;;5122902;27;20046;-39
2023/07/12 01:23:13;;;;;;;11.45;6.45;;;17.40;99.90;;;;;;5120250;27;20047;-40
2023/07/12 01:25:46;;;;;;;11.00;6.03;;;17.40;99.90;;;;;;5114248;27;20057;-41
2023/07/12 01:28:12;;;;;;;7.53;5.45;;;17.40;99.90;;;;;;5096200;27;20554;-40
2023/07/12 01:30:39;;;;;;;9.90;5.63;;;17.40;99.90;;;;;;5096013;28;20048;-40
2023/07/12 01:33:05;;;;;;;10.27;5.00;;;17.40;99.90;;;;;;5114561;27;20463;-40
2023/07/12 01:35:31;;;;;;;9.60;4.47;;;17.40;99.90;;;;;;5105414;27;20445;-40
2023/07/12 01:37:58;;;;;;;12.63;5.68;;;17.40;99.90;;;;;;5114402;27;20039;-41
2023/07/12 01:40:23;;;;;;;13.00;5.22;;;17.40;99.90;;;;;;5135424;27;20074;-42
2023/07/12 01:42:49;;;;;;;12.85;5.25;;;17.50;99.90;;;;;;5131319;27;20043;-40
2023/07/12 01:45:15;;;;;;;9.88;4.65;;;17.50;99.90;;;;;;5113618;27;20122;-40
2023/07/12 01:47:41;;;;;;;9.70;4.72;;;17.50;99.90;;;;;;5116207;27;20089;-40
2023/07/12 01:50:06;;;;;;;12.95;4.72;;;17.50;99.90;;;;;;5135894;27;20050;-39
2023/07/12 01:52:32;;;;;;;10.45;4.55;;;17.50;99.90;;;;;;5120864;27;20388;-41
2023/07/12 01:54:58;;;;;;;11.20;4.50;;;17.60;99.90;;;;;;5139524;27;20099;-41
2023/07/12 01:57:23;;;;;;;11.85;5.05;;;17.60;99.90;;;;;;5139516;27;20047;-42
2023/07/12 01:59:49;;;;;;;11.93;4.85;;;17.60;99.90;;;;;;5138742;27;20053;-41
2023/07/12 02:02:15;;;;;;;13.00;4.70;;;17.60;99.90;;;;;;5098343;27;20051;-40
2023/07/12 02:04:41;;;;;;;12.38;5.28;;;17.60;99.90;;;;;;5116706;27;20389;-40
2023/07/12 02:07:06;;;;;;;12.73;5.55;;;17.60;99.90;;;;;;5116543;27;20535;-40
2023/07/12 02:09:35;;;;;;;11.90;4.25;;;17.60;99.90;;;;;;5118467;27;20047;-39
2023/07/12 02:12:02;;;;;;;16.80;5.10;;;17.60;99.90;;;;;;5099530;27;20491;-40
2023/07/12 02:14:27;;;;;;;15.68;5.13;;;17.60;99.90;;;;;;5128936;27;20494;-39
2023/07/12 02:16:53;;;;;;;15.63;6.15;;;17.60;99.90;;;;;;5139339;27;20053;-43
2023/07/12 02:19:19;;;;;;;18.15;6.28;;;17.60;99.90;;;;;;5138407;27;20490;-40
2023/07/12 02:21:45;;;;;;;13.57;5.63;;;17.60;99.90;;;;;;5139336;27;20446;-39
2023/07/12 02:24:11;;;;;;;14.98;5.55;;;17.50;99.90;;;;;;5138541;27;20046;-40
2023/07/12 02:26:36;;;;;;;14.85;5.78;;;17.60;99.90;;;;;;5138772;27;20043;-39
2023/07/12 02:29:02;;;;;;;14.77;5.18;;;17.50;99.90;;;;;;5138789;27;20111;-42
2023/07/12 02:31:30;;;;;;;14.15;5.82;;;17.50;99.90;;;;;;5139848;27;20765;-40
2023/07/12 02:33:56;;;;;;;13.65;5.47;;;17.50;99.90;;;;;;5137853;27;20039;-40
2023/07/12 02:36:22;;;;;;;12.80;5.03;;;17.50;99.90;;;;;;5110475;27;20054;-41
2023/07/12 02:38:48;;;;;;;14.43;6.28;;;17.40;99.90;;;;;;5115075;27;20038;-40
2023/07/12 02:41:14;;;;;;;21.70;6.32;;;17.40;99.90;;;;;;5118447;27;20083;-39
2023/07/12 02:43:40;;;;;;;16.08;6.68;;;17.40;99.90;;;;;;5117867;27;20043;-39
2023/07/12 02:46:06;;;;;;;17.92;6.22;;;17.30;99.90;;;;;;5118319;27;21566;-41
2023/07/12 02:48:32;;;;;;;16.25;6.40;;;17.30;99.90;;;;;;5098714;27;20039;-40
2023/07/12 02:50:57;;;;;;;18.45;7.38;;;17.40;99.90;;;;;;5117768;27;20557;-40
2023/07/12 02:53:23;;;;;;;17.85;6.93;;;17.30;99.90;;;;;;5099285;27;20035;-41
2023/07/12 02:55:50;;;;;;;14.23;6.70;;;17.30;99.90;;;;;;5117943;27;20046;-43
2023/07/12 02:58:16;;;;;;;16.50;6.47;;;17.30;99.90;;;;;;5117991;27;20039;-40
2023/07/12 03:00:42;;;;;;;20.33;6.28;;;17.20;99.90;;;;;;5116643;27;20103;-39
2023/07/12 03:03:09;;;;;;;18.27;8.35;;;17.20;99.90;;;;;;5117262;27;20036;-40
2023/07/12 03:05:38;;;;;;;14.45;7.18;;;17.20;99.90;;;;;;5116353;27;20049;-40
2023/07/12 03:08:04;;;;;;;18.75;6.70;;;17.20;99.90;;;;;;5117410;27;20043;-40
2023/07/12 03:10:31;;;;;;;18.50;6.47;;;17.20;99.90;;;;;;5098060;27;20344;-41
2023/07/12 03:12:56;;;;;;;16.27;6.88;;;17.20;99.90;;;;;;5117543;27;20042;-40
2023/07/12 03:15:23;;;;;;;20.40;6.97;;;17.20;99.90;;;;;;5098106;27;20035;-40
2023/07/12 03:17:48;;;;;;;18.45;6.07;;;17.20;99.90;;;;;;5117160;27;20049;-41
2023/07/12 03:20:14;;;;;;;18.00;6.47;;;17.20;99.90;;;;;;5116046;27;20035;-40
2023/07/12 03:22:40;;;;;;;16.60;7.43;;;17.20;99.90;;;;;;5117324;27;20770;-39
2023/07/12 03:25:06;;;;;;;19.02;6.68;;;17.20;99.90;;;;;;5116907;27;20043;-41
2023/07/12 03:27:31;;;;;;;20.20;6.68;;;17.20;99.90;;;;;;5117649;27;20047;-40
2023/07/12 03:29:57;;;;;;;18.02;6.82;;;17.30;99.90;;;;;;5116780;27;20035;-40
2023/07/12 03:32:24;;;;;;;19.98;7.57;;;17.30;99.90;;;;;;5099081;27;20043;-40
2023/07/12 03:34:50;;;;;;;18.00;7.55;;;17.30;99.90;;;;;;5090202;28;20659;-40
2023/07/12 03:37:16;;;;;;;17.45;7.20;;;17.30;99.90;;;;;;5115864;27;20054;-41
2023/07/12 03:39:41;;;;;;;16.95;6.35;;;17.30;99.90;;;;;;5130705;27;20121;-39
2023/07/12 03:42:07;;;;;;;18.23;6.00;;;17.30;99.90;;;;;;5137941;27;20481;-40
2023/07/12 03:44:33;;;;;;;17.98;6.90;;;17.30;99.90;;;;;;5107207;27;20176;-40
2023/07/12 03:46:58;;;;;;;15.52;6.43;;;17.30;99.90;;;;;;5117575;27;20397;-41
2023/07/12 03:49:24;;;;;;;18.83;6.70;;;17.30;99.90;;;;;;5116813;27;20468;-40
2023/07/12 03:51:50;;;;;;;21.30;7.30;;;17.20;99.90;;;;;;5117245;27;20054;-40
2023/07/12 03:54:15;;;;;;;15.98;6.30;;;17.20;99.90;;;;;;5116459;27;20047;-39
2023/07/12 03:56:41;;;;;;;22.02;7.68;;;17.10;99.90;;;;;;5116879;27;20394;-40
2023/07/12 03:59:08;;;;;;;19.55;6.35;;;17.10;99.90;;;;;;5134233;27;20141;-40
2023/07/12 04:01:36;;;;;;;17.60;7.32;;;17.10;99.90;;;;;;5124083;27;20469;-40
2023/07/12 04:04:02;;;;;;;19.63;6.70;;;17.10;99.90;;;;;;5115473;27;20570;-40
2023/07/12 04:06:28;;;;;;;20.73;6.22;;;17.10;99.90;;;;;;5115047;27;20479;-41
2023/07/12 04:08:54;;;;;;;21.75;7.40;;;17.20;99.90;;;;;;5116325;27;20043;-41
2023/07/12 04:11:26;;;;;;;23.02;6.38;;;17.20;99.90;;;;;;5117742;27;20074;-39
2023/07/12 04:13:52;;;;;;;22.13;7.40;;;17.20;99.90;;;;;;5115461;27;20039;-41
2023/07/12 04:16:18;;;;;;;22.88;6.65;;;17.20;99.90;;;;;;5116964;27;20513;-40
2023/07/12 04:18:44;;;;;;;18.73;6.35;;;17.20;99.90;;;;;;5115314;27;20071;-39
2023/07/12 04:21:10;;;;;;;20.42;7.10;;;17.20;99.90;;;;;;5116057;27;20199;-39
2023/07/12 04:23:36;;;;;;;21.90;7.53;;;17.20;99.90;;;;;;5115991;27;20487;-41
2023/07/12 04:26:04;;;;;;;20.48;6.35;;;17.20;99.90;;;;;;5116633;27;20456;-40
2023/07/12 04:28:31;;;;;;;20.70;6.68;;;17.30;99.90;;;;;;5115805;27;20050;-39
2023/07/12 04:31:06;;;;;;;14.05;5.85;;;17.30;99.90;;;;;;5116352;27;20453;-41
2023/07/12 04:33:31;;;;;;;24.40;6.78;;;17.30;99.90;;;;;;5115345;27;20043;-40
2023/07/12 04:35:57;;;;;;;20.52;6.60;;;17.40;99.90;;;;;;5107110;27;20367;-40
2023/07/12 04:38:23;;;;;;;20.88;6.43;;;17.40;99.90;;;;;;5119150;27;20911;-40
2023/07/12 04:40:55;;;;;;;15.80;5.63;;;17.30;99.90;;;;;;5137478;27;20457;-40
2023/07/12 04:43:21;;;;;;;22.00;6.63;;;17.40;99.90;;;;;;5123420;27;20079;-39
2023/07/12 04:45:47;;;;;;;18.40;6.57;;;17.40;99.90;;;;;;5108466;27;20614;-40
2023/07/12 04:48:13;;;;;;;22.75;6.22;;;17.40;99.90;;;;;;5115901;27;20072;-39
2023/07/12 04:50:38;;;;;;;15.93;6.03;;;17.40;99.90;;;;;;5115504;27;20049;-40
2023/07/12 04:53:04;;;;;;;17.30;6.35;;;17.40;99.90;;;;;;5115382;27;20070;-40
2023/07/12 04:55:30;;;;;;;20.42;6.78;;;17.50;99.90;;;;;;5115827;27;20051;-40
2023/07/12 04:57:56;;;;;;;17.15;6.38;;;17.50;99.90;;;;;;5124162;27;20078;-42
2023/07/12 05:00:25;;;;;;;23.00;6.93;;;17.50;99.90;;;;;;5135949;27;20126;-39
2023/07/12 05:02:52;;;;;;;20.23;6.78;;;17.50;99.90;;;;;;5137234;27;20350;-41
2023/07/12 05:05:17;;;;;;;16.85;5.43;;;17.50;99.90;;;;;;5102268;27;20104;-40
2023/07/12 05:07:43;;;;;;;21.30;6.70;;;17.60;99.90;;;;;;5115168;27;20415;-40
2023/07/12 05:10:10;;;;;;;20.55;6.10;;;17.70;99.90;;;;;;5114661;27;20126;-42
2023/07/12 05:12:37;;;;;;;15.25;6.18;;;18.80;99.90;;;;;;5123289;27;20583;-43
2023/07/12 05:15:04;;;;;;;17.35;5.25;;;20.20;99.90;;;;;;5135479;27;20081;-39
2023/07/12 05:17:30;;;;;;;14.35;5.68;;;21.70;99.90;;;;;;5136447;27;20043;-39
2023/07/12 05:19:56;;;;;;;12.55;5.60;;;22.40;99.90;;;;;;5135945;27;20472;-41
2023/07/12 05:22:23;;;;;;;16.50;6.43;;;22.30;99.90;;;;;;5136615;27;20042;-41
2023/07/12 05:24:49;;;;;;;17.83;5.85;;;22.20;99.90;;;;;;5135287;27;20049;-43
2023/07/12 05:27:15;;;;;;;13.55;5.13;;;21.80;99.90;;;;;;5135812;27;20452;-41
2023/07/12 05:29:41;;;;;;;19.58;5.68;;;21.10;99.90;;;;;;5121394;27;20043;-42
2023/07/12 05:32:07;;;;;;;17.17;6.53;;;20.60;99.90;;;;;;5099328;27;20410;-40
2023/07/12 05:34:33;;;;;;;15.73;5.65;;;20.10;99.90;;;;;;5124286;27;20054;-41
2023/07/12 05:36:58;;;;;;;17.83;5.38;;;19.60;99.90;;;;;;5093187;28;20047;-40
2023/07/12 05:39:24;;;;;;;17.58;5.93;;;19.50;99.90;;;;;;5107766;27;20074;-43
2023/07/12 05:41:50;;;;;;;16.60;5.45;;;20.40;99.90;;;;;;5128721;27;20056;-41
2023/07/12 05:44:15;;;;;;;15.23;4.45;;;21.90;99.90;;;;;;5082711;27;20044;-40
2023/07/12 05:46:41;;;;;;;15.85;5.18;;;23.30;99.90;;;;;;5115480;27;20092;-40
2023/07/12 05:49:07;;;;;;;16.75;5.43;;;24.80;99.90;;;;;;5115333;27;20051;-41
2023/07/12 05:51:33;;;;;;;16.60;5.38;;;25.50;99.90;;;;;;5115707;27;20602;-41
2023/07/12 05:53:58;;;;;;;15.88;5.65;;;26.40;99.90;;;;;;5096175;27;20690;-43
2023/07/12 05:56:24;;;;;;;13.93;4.85;;;27.00;99.90;;;;;;5123258;27;20042;-42
2023/07/12 05:58:49;;;;;;;12.23;4.55;;;27.70;99.90;;;;;;5135066;27;20061;-41
2023/07/12 06:01:17;;;;;;;13.57;5.18;;;27.70;99.90;;;;;;5136462;27;20043;-41
2023/07/12 06:03:42;;;;;;;13.57;4.93;;;27.80;99.90;;;;;;5135367;27;20046;-41
2023/07/12 06:06:09;;;;;;;13.90;4.50;;;27.90;99.90;;;;;;5136711;27;20035;-41
2023/07/12 06:08:35;;;;;;;15.38;5.75;;;27.80;99.90;;;;;;5135323;27;20475;-41
2023/07/12 06:11:01;;;;;;;15.85;4.75;;;28.10;99.90;;;;;;5135937;27;20087;-41
2023/07/12 06:13:26;;;;;;;14.60;4.85;;;26.90;99.90;;;;;;5135424;27;20050;-41
2023/07/12 06:15:52;;;;;;;16.35;5.30;;;25.20;99.90;;;;;;5136076;27;20482;-40
2023/07/12 06:18:19;;;;;;;13.80;5.20;;;23.90;99.90;;;;;;5135596;27;20497;-40
2023/07/12 06:20:45;;;;;;;15.52;4.82;;;22.90;99.90;;;;;;5135782;27;20134;-40
2023/07/12 06:23:11;;;;;;;15.65;4.80;;;22.00;99.90;;;;;;5134866;27;20053;-43
2023/07/12 06:25:37;;;;;;;19.58;5.28;;;21.90;99.90;;;;;;5115860;27;20059;-41
2023/07/12 06:28:03;;;;;;;17.52;6.68;;;23.20;99.90;;;;;;5115024;27;20054;-41
2023/07/12 06:30:29;;;;;;;14.77;5.53;;;24.60;99.90;;;;;;5116283;27;20127;-42
2023/07/12 06:32:55;;;;;;;17.65;5.72;;;25.90;99.90;;;;;;5134565;27;20047;-43
2023/07/12 06:35:21;;;;;;;15.95;5.57;;;27.20;99.90;;;;;;5078862;27;20365;-43
2023/07/12 06:37:46;;;;;;;16.17;5.63;;;27.80;99.90;;;;;;5114391;27;20212;-41
2023/07/12 06:40:12;;;;;;;12.55;5.13;;;28.40;99.90;;;;;;5117500;27;20125;-43
2023/07/12 06:42:38;;;;;;;15.98;5.22;;;28.90;99.90;;;;;;5117150;27;20039;-41
2023/07/12 06:45:04;;;;;;;11.63;4.85;;;28.90;99.90;;;;;;5105093;27;20130;-42
2023/07/12 06:47:31;;;;;;;16.60;5.22;;;28.70;99.90;;;;;;5117978;27;20153;-42
2023/07/12 06:49:57;;;;;;;12.48;5.05;;;28.50;99.90;;;;;;5117715;27;20584;-41
2023/07/12 06:52:23;;;;;;;14.38;5.15;;;29.10;99.90;;;;;;5118385;27;20305;-43
2023/07/12 06:54:48;;;;;;;15.43;4.88;;;29.00;99.10;;;;;;5099291;27;20632;-42
2023/07/12 06:57:14;;;;;;;12.98;4.40;;;28.10;99.80;;;;;;5118073;27;20095;-43
2023/07/12 06:59:40;;;;;;;14.35;4.50;;;27.20;99.90;;;;;;5118025;27;20061;-41
2023/07/12 07:02:10;;;;;;;15.40;4.88;;;26.00;99.90;;;;;;5100108;27;20043;-42
2023/07/12 07:04:35;;;;;;;12.23;4.65;;;25.30;99.90;;;;;;5118633;27;20047;-43
2023/07/12 07:07:01;;;;;;;13.90;4.88;;;25.10;99.90;;;;;;5118147;27;20043;-41
2023/07/12 07:09:27;;;;;;;12.80;5.05;;;25.70;99.90;;;;;;5099459;27;20050;-41
2023/07/12 07:11:52;;;;;;;14.05;4.40;;;26.70;99.90;;;;;;5116021;27;20461;-42
2023/07/12 07:14:18;;;;;;;11.30;5.55;;;26.60;99.90;;;;;;5106908;27;20035;-40
2023/07/12 07:16:46;;;;;;;13.23;5.22;;;26.00;99.90;;;;;;5138826;27;20042;-41
2023/07/12 07:19:12;;;;;;;13.95;4.80;;;25.20;99.90;;;;;;5110601;27;20043;-41
2023/07/12 07:21:38;;;;;;;12.82;5.22;;;24.60;99.90;;;;;;5098713;27;20082;-41
2023/07/12 07:24:04;;;;;;;13.68;5.13;;;23.70;99.90;;;;;;5101985;27;20048;-41
2023/07/12 07:26:30;;;;;;;12.43;4.97;;;23.10;99.90;;;;;;5097797;27;20493;-41
2023/07/12 07:28:56;;;;;;;15.75;5.13;;;22.40;99.90;;;;;;5100366;27;20035;-42
2023/07/12 07:31:21;;;;;;;15.38;4.88;;;22.40;99.90;;;;;;5105845;27;20043;-41
2023/07/12 07:33:47;;;;;;;14.45;5.47;;;22.70;99.90;;;;;;5086996;27;20150;-41
2023/07/12 07:36:14;;;;;;;16.17;5.93;;;22.80;99.90;;;;;;5107334;27;20035;-40
2023/07/12 07:38:40;;;;;;;18.15;5.65;;;23.20;99.90;;;;;;5112286;27;20051;-40
2023/07/12 07:41:11;;;;;;;16.02;6.22;;;23.60;99.90;;;;;;5115620;27;20092;-42
2023/07/12 07:43:39;;;;;;;15.40;5.13;;;24.00;99.90;;;;;;5087153;28;20123;-43
2023/07/12 07:46:08;;;;;;;12.05;4.97;;;24.40;99.90;;;;;;5112530;27;20051;-42
2023/07/12 07:48:34;;;;;;;15.38;5.88;;;25.00;99.90;;;;;;5095934;27;20115;-42
2023/07/12 07:51:00;;;;;;;18.20;5.07;;;25.00;99.90;;;;;;5115761;27;20043;-40
2023/07/12 07:53:26;;;;;;;14.93;5.20;;;24.80;99.90;;;;;;5115698;27;20051;-41
2023/07/12 07:55:52;;;;;;;15.57;4.78;;;24.40;99.90;;;;;;5115471;27;20137;-41
2023/07/12 07:58:19;;;;;;;15.35;5.40;;;23.70;99.90;;;;;;5097197;27;20504;-40
2023/07/12 08:00:45;;;;;;;10.50;4.50;;;23.00;99.90;;;;;;5116027;27;20047;-40
2023/07/12 08:03:12;;;;;;;11.60;4.20;;;22.40;99.90;;;;;;5115528;27;20051;-42
2023/07/12 08:05:38;;;;;;;13.13;5.00;;;22.00;99.90;;;;;;5114927;27;20054;-40
2023/07/12 08:08:04;;;;;;;15.10;5.43;;;21.70;99.90;;;;;;5113447;27;20107;-41
2023/07/12 08:10:32;;;;;;;13.50;5.72;;;21.60;99.90;;;;;;5096722;27;20965;-41
2023/07/12 08:12:58;;;;;;;14.30;5.28;;;21.50;99.90;;;;;;5113952;27;20050;-41
2023/07/12 08:15:24;;;;;;;14.27;5.38;;;21.50;99.90;;;;;;5113199;27;20054;-43
2023/07/12 08:17:50;;;;;;;12.75;4.40;;;21.70;99.90;;;;;;5115691;27;20050;-40
2023/07/12 08:20:16;;;;;;;13.68;4.75;;;21.60;99.90;;;;;;5114736;27;20536;-42
2023/07/12 08:22:42;;;;;;;11.32;4.03;;;21.60;99.90;;;;;;5119100;27;20457;-41
2023/07/12 08:25:08;;;;;;;15.95;4.57;;;21.90;99.90;;;;;;5096758;27;20047;-41
2023/07/12 08:27:34;;;;;;;14.65;4.82;;;22.30;99.90;;;;;;5126924;27;20047;-41
2023/07/12 08:30:00;;;;;;;15.63;5.00;;;22.70;99.90;;;;;;5134460;27;20054;-41
2023/07/12 08:32:32;;;;;;;11.50;4.72;;;23.10;99.90;;;;;;5124900;27;20054;-40
2023/07/12 08:34:58;;;;;;;14.43;3.92;;;23.50;99.90;;;;;;5105349;27;20921;-41
2023/07/12 08:37:24;;;;;;;11.15;4.40;;;23.60;99.90;;;;;;5114539;27;20111;-41
2023/07/12 08:39:50;;;;;;;13.88;4.55;;;24.00;99.90;;;;;;5112714;27;20047;-40
2023/07/12 08:42:25;;;;;;;11.43;4.32;;;24.10;99.90;;;;;;5116641;27;20082;-41
2023/07/12 08:44:52;;;;;;;12.90;4.20;;;24.10;99.90;;;;;;5089243;27;20051;-42
2023/07/12 08:47:23;;;;;;;8.38;3.33;;;23.90;99.90;;;;;;5109125;27;20150;-41
2023/07/12 08:49:49;;;;;;;8.52;4.15;;;23.70;99.90;;;;;;5106150;27;20051;-41
2023/07/12 08:52:33;;;;;;;10.68;3.78;;;23.30;99.90;;;;;;5086848;27;20822;-41
2023/07/12 08:55:01;;;;;;;11.25;3.60;;;22.90;99.90;;;;;;5096273;27;20116;-41
2023/07/12 08:57:30;;;;;;;7.05;3.03;;;22.30;99.90;;;;;;5088949;27;20043;-40
2023/07/12 09:00:06;;;;;;;5.72;2.50;;;22.10;99.90;;;;;;5120557;27;20145;-40
2023/07/12 09:02:33;;;;;;;8.85;2.60;;;22.20;99.90;;;;;;5115646;27;20157;-41
2023/07/12 09:05:09;;;;;;;6.45;2.60;;;22.40;99.90;;;;;;5126157;27;20124;-40
2023/07/12 09:07:36;;;;;;;5.43;3.13;;;22.80;99.90;;;;;;5109371;27;20039;-39
2023/07/12 09:10:02;;;;;;;7.45;3.78;;;23.10;99.90;;;;;;5064900;27;20453;-40
2023/07/12 09:12:31;;;;;;;7.88;2.75;;;23.00;99.90;;;;;;5079790;27;20524;-41
2023/07/12 09:15:03;;;;;;;7.97;2.97;;;23.20;99.90;;;;;;5114893;27;20050;-40
2023/07/12 09:17:42;;;;;;;11.98;5.43;;;23.10;99.90;;;;;;5096503;27;20785;-42
2023/07/12 09:20:25;;;;;;;7.18;3.47;;;22.70;99.90;;;;;;5113686;27;20047;-40
2023/07/12 09:22:53;;;;;;;5.88;3.05;;;23.00;99.90;;;;;;5100187;27;20121;-40
2023/07/12 09:25:34;;;;;;;7.28;3.30;;;23.00;99.90;;;;;;5081795;28;20039;-40
2023/07/12 09:28:00;;;;;;;10.73;3.45;;;23.00;99.90;;;;;;5109328;27;20038;-40
2023/07/12 09:30:29;;;;;;;7.47;3.60;;;22.80;99.90;;;;;;5096868;27;20047;-40
2023/07/12 09:32:56;;;;;;;6.47;2.88;;;22.50;99.90;;;;;;5113708;27;20047;-42
2023/07/12 09:35:37;;;;;;;5.65;3.35;;;22.30;99.90;;;;;;5071200;28;20132;-40
2023/07/12 09:38:05;;;;;;;6.10;3.00;;;22.40;99.90;;;;;;5110960;27;20058;-40
2023/07/12 09:40:43;;;;;;;8.57;3.33;;;22.40;99.90;;;;;;5114012;27;20048;-40
2023/07/12 09:43:23;;;;;;;7.00;3.40;;;22.70;99.90;;;;;;5108153;27;20510;-41
2023/07/12 09:46:19;;;;;;;9.52;4.30;;;23.10;99.90;;;;;;5122214;27;20074;-39
2023/07/12 09:48:50;;;;;;;9.00;3.00;;;23.50;99.90;;;;;;5134824;27;20058;-40
2023/07/12 09:51:48;;;;;;;6.78;3.38;;;23.80;99.90;;;;;;5135031;27;20054;-42
2023/07/12 09:54:35;;;;;;;7.25;3.08;;;24.10;99.90;;;;;;5115538;27;20893;-40
2023/07/12 09:57:07;;;;;;;7.00;2.90;;;24.30;99.90;;;;;;5135009;27;20623;-43
2023/07/12 09:59:38;;;;;;;8.35;3.00;;;24.40;99.90;;;;;;5134433;27;20050;-40
2023/07/12 10:02:24;;;;;;;9.50;3.28;;;24.40;99.90;;;;;;5134919;27;20134;-40
2023/07/12 10:04:56;;;;;;;6.38;2.90;;;24.20;99.90;;;;;;5103580;27;20165;-40
2023/07/12 10:07:34;;;;;;;7.72;3.13;;;24.10;99.90;;;;;;5113194;27;20043;-41
2023/07/12 10:09:59;;;;;;;9.32;3.35;;;24.20;99.90;;;;;;5111680;27;20047;-40
2023/07/12 10:12:28;;;;;;;5.43;3.00;;;24.00;99.90;;;;;;5100335;27;21054;-41
2023/07/12 10:14:54;;;;;;;6.43;3.63;;;23.70;99.90;;;;;;5137927;27;20050;-42
2023/07/12 10:17:47;;;;;;;6.53;3.50;;;23.90;99.90;;;;;;5136170;27;20054;-41
2023/07/12 10:20:20;;;;;;;8.40;3.37;;;23.90;99.90;;;;;;5128719;27;20086;-40
2023/07/12 10:22:46;;;;;;;7.28;3.00;;;23.90;99.90;;;;;;5136873;27;20058;-42
2023/07/12 10:25:15;;;;;;;9.38;3.03;;;23.60;99.90;;;;;;5119979;27;20174;-42
2023/07/12 10:27:46;;;;;;;6.88;2.67;;;23.60;99.90;;;;;;5138542;27;20066;-40
2023/07/12 10:30:19;;;;;;;7.28;3.08;;;23.80;99.90;;;;;;5138856;27;20138;-40
2023/07/12 10:32:55;;;;;;;7.72;3.13;;;24.00;99.90;;;;;;5137730;27;20155;-40
2023/07/12 10:35:34;;;;;;;8.23;3.08;;;24.10;99.90;;;;;;5116960;27;20405;-40
2023/07/12 10:38:05;;;;;;;9.35;3.78;;;24.40;99.90;;;;;;5116506;27;20539;-40
2023/07/12 10:40:37;;;;;;;7.65;3.20;;;24.30;99.90;;;;;;5102069;27;20054;-41
2023/07/12 10:43:08;;;;;;;10.23;2.80;;;23.80;99.90;;;;;;5129540;27;20116;-40
2023/07/12 10:45:37;;;;;;;6.72;2.65;;;23.50;99.90;;;;;;5122052;27;20106;-40
2023/07/12 10:48:05;;;;;;;5.60;2.63;;;23.50;99.90;;;;;;5137788;27;20046;-40
2023/07/12 10:50:37;;;;;;;6.75;2.72;;;23.70;99.90;;;;;;5138627;27;20134;-40
2023/07/12 10:53:14;;;;;;;4.78;2.33;;;23.80;99.90;;;;;;5130570;27;20092;-40
2023/07/12 10:56:07;;;;;;;5.90;2.35;;;24.10;99.90;;;;;;5122642;27;20087;-40
2023/07/12 10:58:54;;;;;;;6.55;2.03;;;24.10;99.90;;;;;;5137894;27;20469;-42
2023/07/12 11:01:42;;;;;;;4.25;2.00;;;23.90;99.90;;;;;;5137261;27;20155;-40
2023/07/12 11:04:31;;;;;;;3.38;1.73;;;23.80;99.90;;;;;;5095743;27;20102;-40
2023/07/12 11:07:14;;;;;;;6.30;1.92;;;23.80;99.90;;;;;;5080659;27;20951;-41
2023/07/12 11:09:46;;;;;;;;;;;24.00;99.90;;;;;;5080488;28;20053;-40
2023/07/12 11:12:34;;;;;;;6.60;2.57;;;23.70;99.90;;;;;;5078235;28;20038;-40
2023/07/12 11:15:18;;;;;;;3.40;1.75;;;23.40;99.90;;;;;;5080893;27;20065;-40
2023/07/12 11:18:09;;;;;;;3.63;1.90;;;23.20;99.90;;;;;;5096547;27;20839;-42
2023/07/12 11:20:59;;;;;;;6.13;2.83;;;23.00;99.90;;;;;;5097964;27;20248;-40
2023/07/12 11:23:45;;;;;;;5.60;2.20;;;23.30;99.90;;;;;;5095070;27;20043;-42
2023/07/12 11:26:22;;;;;;;5.63;2.58;;;23.40;99.90;;;;;;5109150;27;20043;-43
2023/07/12 11:28:48;;;;;;;4.28;1.90;;;23.30;99.90;;;;;;5103919;27;20047;-40
2023/07/12 11:31:17;;;;;;;8.23;2.45;;;23.30;99.90;;;;;;5116274;27;20054;-41
2023/07/12 11:33:57;;;;;;;4.65;2.08;;;23.30;99.90;;;;;;5115023;27;20567;-40
2023/07/12 11:36:28;;;;;;;4.20;2.25;;;23.30;99.90;;;;;;5107932;27;20621;-40
2023/07/12 11:38:55;;;;;;;6.28;1.75;;;23.10;99.90;;;;;;5113514;27;20043;-40
2023/07/12 11:41:26;;;;;;;4.63;2.13;;;22.90;99.90;;;;;;5116942;27;20131;-42
2023/07/12 11:44:03;;;;;;;4.82;2.15;;;22.80;99.90;;;;;;5115347;27;20099;-40
2023/07/12 11:46:37;;;;;;;6.20;1.90;;;22.80;99.90;;;;;;5115473;27;20082;-41
2023/07/12 11:49:21;;;;;;;4.35;1.73;;;22.90;99.90;;;;;;5115577;27;20841;-42
2023/07/12 11:51:51;;;;;;;6.13;2.00;;;23.00;99.90;;;;;;5098052;27;20123;-39
2023/07/12 11:54:22;;;;;;;5.90;1.70;;;23.00;99.90;;;;;;5115551;27;20055;-40
2023/07/12 11:56:50;;;;;;;3.60;1.55;;;23.30;99.90;;;;;;5116138;27;20128;-39
2023/07/12 11:59:19;;;;;;;4.30;1.65;;;23.40;99.90;;;;;;5114180;27;20494;-39
2023/07/12 12:01:47;;;;;;;4.68;1.70;;;23.60;99.90;;;;;;5115593;27;20043;-40
2023/07/12 12:04:23;;;;;;;5.22;1.85;;;23.80;99.90;;;;;;5115115;27;20127;-41
2023/07/12 12:06:55;;;;;;;4.20;1.40;;;23.70;99.90;;;;;;5116251;27;20051;-40
2023/07/12 12:09:30;;;;;;;6.30;2.05;;;23.50;99.90;;;;;;5103319;27;20055;-40
2023/07/12 12:11:58;;;;;;;4.10;1.58;;;23.60;99.90;;;;;;5097056;27;20047;-40
2023/07/12 12:14:29;;;;;;;3.90;1.45;;;23.70;99.90;;;;;;5115181;27;20041;-42
2023/07/12 12:16:56;;;;;;;4.88;1.58;;;23.80;99.90;;;;;;5114827;27;20262;-42
2023/07/12 12:19:27;;;;;;;6.25;1.52;;;23.90;99.90;;;;;;5115028;27;20079;-41
2023/07/12 12:22:00;;;;;;;2.47;1.25;;;24.00;99.90;;;;;;5097395;27;20181;-40
2023/07/12 12:24:26;;;;;;;6.03;1.70;;;24.20;99.90;;;;;;5080214;27;20074;-40
2023/07/12 12:26:52;;;;;;;4.65;1.30;;;24.10;99.50;;;;;;5115447;27;20134;-40
2023/07/12 12:29:23;;;;;;;4.70;1.48;;;23.90;99.90;;;;;;5114158;27;20411;-42
2023/07/12 12:31:53;;;;;;;3.95;1.25;;;23.50;99.90;;;;;;5096970;27;20039;-40
2023/07/12 12:34:20;;;;;;;4.00;1.20;;;23.60;99.90;;;;;;5091710;28;20130;-43
2023/07/12 12:37:33;;;;;;;5.97;1.90;;;23.60;99.90;;;;;;5108872;27;20081;-39
2023/07/12 12:40:00;;;;;;;5.87;1.70;;;23.90;99.90;;;;;;5029506;28;20064;-40
2023/07/12 12:42:27;;;;;;;4.25;1.88;;;24.20;99.90;;;;;;5030512;28;20272;-40
2023/07/12 12:44:55;;;;;;;3.63;1.40;;;24.30;99.90;;;;;;5037244;28;20053;-41
2023/07/12 12:47:24;;;;;;;4.57;1.40;;;24.10;98.90;;;;;;5034249;28;20048;-39
2023/07/12 12:49:50;;;;;;;4.35;1.80;;;24.00;99.90;;;;;;5033639;28;20079;-39